createdAt,value
2018-12-03T00:01:28.406Z,12.60
2018-12-03T00:04:07.657Z,12.60
2018-12-03T00:06:36.041Z,12.60
2018-12-03T00:09:06.621Z,12.60
2018-12-03T00:11:35.103Z,12.60
2018-12-03T00:14:03.509Z,12.60
2018-12-03T00:16:31.925Z,12.60
2018-12-03T00:19:00.370Z,12.60
2018-12-03T00:21:28.752Z,12.60
2018-12-03T00:23:57.153Z,12.60
2018-12-03T00:26:25.606Z,12.60
2018-12-03T00:28:54.008Z,12.60
2018-12-03T00:31:22.406Z,12.60
2018-12-03T00:33:50.810Z,12.60
2018-12-03T00:36:19.229Z,12.60
2018-12-03T00:38:47.583Z,12.60
2018-12-03T00:41:15.962Z,12.60
2018-12-03T00:43:44.332Z,12.60
2018-12-03T00:46:12.864Z,12.70
2018-12-03T00:48:41.233Z,12.70
2018-12-03T00:51:09.630Z,12.60
2018-12-03T00:53:37.983Z,12.70
2018-12-03T00:56:12.893Z,12.70
2018-12-03T00:58:41.281Z,12.60
2018-12-03T01:01:09.700Z,12.60
2018-12-03T01:03:38.063Z,12.60
2018-12-03T01:06:06.553Z,12.60
2018-12-03T01:08:34.986Z,12.60
2018-12-03T01:11:03.386Z,12.60
2018-12-03T01:13:31.779Z,12.50
2018-12-03T01:16:00.298Z,12.50
2018-12-03T01:18:28.756Z,12.50
2018-12-03T01:20:57.122Z,12.50
2018-12-03T01:23:25.592Z,12.40
2018-12-03T01:25:53.982Z,12.50
2018-12-03T01:28:22.425Z,12.50
2018-12-03T01:30:50.853Z,12.40
2018-12-03T01:33:19.282Z,12.40
2018-12-03T01:35:47.683Z,12.40
2018-12-03T01:38:16.077Z,12.40
2018-12-03T01:40:44.502Z,12.40
2018-12-03T01:43:13.038Z,12.40
2018-12-03T01:45:41.506Z,12.40
2018-12-03T01:48:10.113Z,12.40
2018-12-03T01:50:38.482Z,12.40
2018-12-03T01:53:06.873Z,12.40
2018-12-03T01:55:35.218Z,12.40
2018-12-03T01:58:03.617Z,12.40
2018-12-03T02:00:32.102Z,12.40
2018-12-03T02:03:00.540Z,12.40
2018-12-03T02:05:28.955Z,12.40
2018-12-03T02:07:57.323Z,12.40
2018-12-03T02:10:25.689Z,12.40
2018-12-03T02:12:54.096Z,12.40
2018-12-03T02:15:22.470Z,12.40
2018-12-03T02:17:50.857Z,12.40
2018-12-03T02:20:19.229Z,12.40
2018-12-03T02:22:47.593Z,12.50
2018-12-03T02:25:15.992Z,12.50
2018-12-03T02:27:44.341Z,12.50
2018-12-03T02:30:13.561Z,12.60
2018-12-03T02:32:42.250Z,12.60
2018-12-03T02:35:11.189Z,12.60
2018-12-03T02:37:39.648Z,12.60
2018-12-03T02:40:09.839Z,12.70
2018-12-03T02:42:38.313Z,12.60
2018-12-03T02:45:07.989Z,12.70
2018-12-03T02:47:36.382Z,12.60
2018-12-03T02:50:05.697Z,12.70
2018-12-03T02:52:34.080Z,12.70
2018-12-03T02:55:02.467Z,12.70
2018-12-03T02:57:30.842Z,12.70
2018-12-03T02:59:59.237Z,12.70
2018-12-03T03:02:27.661Z,12.70
2018-12-03T03:04:56.062Z,12.70
2018-12-03T03:07:24.434Z,12.70
2018-12-03T03:09:52.801Z,12.70
2018-12-03T03:12:21.231Z,12.70
2018-12-03T03:14:49.586Z,12.70
2018-12-03T03:17:17.972Z,12.70
2018-12-03T03:19:46.407Z,12.60
2018-12-03T03:22:14.783Z,12.70
2018-12-03T03:24:43.176Z,12.70
2018-12-03T03:27:11.549Z,12.70
2018-12-03T03:29:39.918Z,12.70
2018-12-03T03:32:08.319Z,12.70
2018-12-03T03:34:36.742Z,12.80
2018-12-03T03:37:05.187Z,12.70
2018-12-03T03:39:33.584Z,12.70
2018-12-03T03:42:01.967Z,12.70
2018-12-03T03:44:30.409Z,12.60
2018-12-03T03:46:58.817Z,12.50
2018-12-03T03:49:27.221Z,12.50
2018-12-03T03:51:55.606Z,12.50
2018-12-03T03:54:25.507Z,12.40
2018-12-03T03:56:52.473Z,12.40
2018-12-03T03:59:20.833Z,12.40
2018-12-03T04:01:49.201Z,12.40
2018-12-03T04:04:17.643Z,12.40
2018-12-03T04:06:46.007Z,12.40
2018-12-03T04:09:14.417Z,12.40
2018-12-03T04:11:43.676Z,12.40
2018-12-03T04:14:12.077Z,12.40
2018-12-03T04:16:40.494Z,12.40
2018-12-03T04:19:08.881Z,12.40
2018-12-03T04:21:37.513Z,12.40
2018-12-03T04:24:05.904Z,12.40
2018-12-03T04:26:34.260Z,12.40
2018-12-03T04:29:02.653Z,12.50
2018-12-03T04:31:31.071Z,12.40
2018-12-03T04:33:59.618Z,12.50
2018-12-03T04:36:28.173Z,12.50
2018-12-03T04:38:56.581Z,12.60
2018-12-03T04:41:24.975Z,12.60
2018-12-03T04:43:53.382Z,12.60
2018-12-03T04:46:21.772Z,12.50
2018-12-03T04:48:50.194Z,12.50
2018-12-03T04:51:18.751Z,12.50
2018-12-03T04:53:47.109Z,12.40
2018-12-03T04:56:15.525Z,12.40
2018-12-03T04:58:43.911Z,12.40
2018-12-03T05:01:12.330Z,12.40
2018-12-03T05:03:41.003Z,12.30
2018-12-03T05:06:09.400Z,12.40
2018-12-03T05:08:37.777Z,12.40
2018-12-03T05:11:06.469Z,12.30
2018-12-03T05:13:34.858Z,12.30
2018-12-03T05:16:03.302Z,12.20
2018-12-03T05:18:31.660Z,12.30
2018-12-03T05:21:00.057Z,12.30
2018-12-03T05:23:28.428Z,12.30
2018-12-03T05:25:56.785Z,12.30
2018-12-03T05:28:25.247Z,12.30
2018-12-03T05:30:53.610Z,12.30
2018-12-03T05:33:22.041Z,12.30
2018-12-03T05:35:50.430Z,12.20
2018-12-03T05:38:18.885Z,12.20
2018-12-03T05:40:47.426Z,12.10
2018-12-03T05:43:15.853Z,12.10
2018-12-03T05:45:44.297Z,12.10
2018-12-03T05:48:12.703Z,12.10
2018-12-03T05:50:41.068Z,12.00
2018-12-03T05:53:09.486Z,12.00
2018-12-03T05:55:37.842Z,12.00
2018-12-03T05:58:06.261Z,12.00
2018-12-03T06:00:34.924Z,11.90
2018-12-03T06:03:03.294Z,11.80
2018-12-03T06:05:31.919Z,11.80
2018-12-03T06:08:00.084Z,11.90
2018-12-03T06:10:28.460Z,11.90
2018-12-03T06:12:56.841Z,11.90
2018-12-03T06:15:25.202Z,11.90
2018-12-03T06:17:53.614Z,11.90
2018-12-03T06:20:22.657Z,12.00
2018-12-03T06:22:51.710Z,11.90
2018-12-03T06:25:20.863Z,11.90
2018-12-03T06:27:49.274Z,11.80
2018-12-03T06:30:18.525Z,11.80
2018-12-03T06:32:47.054Z,11.80
2018-12-03T06:35:15.931Z,11.70
2018-12-03T06:37:44.320Z,11.70
2018-12-03T06:40:14.325Z,11.70
2018-12-03T06:42:42.758Z,11.70
2018-12-03T06:45:11.865Z,11.70
2018-12-03T06:47:42.584Z,11.70
2018-12-03T06:50:11.786Z,11.70
2018-12-03T06:52:40.606Z,11.60
2018-12-03T06:55:09.706Z,11.50
2018-12-03T06:57:38.109Z,11.60
2018-12-03T07:00:10.709Z,11.70
2018-12-03T07:02:39.129Z,11.70
2018-12-03T07:05:08.317Z,11.70
2018-12-03T07:07:36.751Z,11.70
2018-12-03T07:10:07.978Z,11.80
2018-12-03T07:12:36.665Z,11.80
2018-12-03T07:15:05.990Z,11.80
2018-12-03T07:17:34.418Z,11.80
2018-12-03T07:20:03.085Z,11.70
2018-12-03T07:22:31.504Z,11.70
2018-12-03T07:24:59.898Z,11.60
2018-12-03T07:27:28.415Z,11.50
2018-12-03T07:29:56.829Z,11.50
2018-12-03T07:32:25.254Z,11.40
2018-12-03T07:34:53.610Z,11.30
2018-12-03T07:37:22.031Z,11.30
2018-12-03T07:39:50.381Z,11.40
2018-12-03T07:42:18.767Z,11.40
2018-12-03T07:44:47.205Z,11.40
2018-12-03T07:47:15.615Z,11.50
2018-12-03T07:49:43.983Z,11.50
2018-12-03T07:52:12.357Z,11.50
2018-12-03T07:54:40.755Z,11.50
2018-12-03T07:57:09.260Z,11.50
2018-12-03T07:59:37.714Z,11.50
2018-12-03T08:02:06.191Z,11.50
2018-12-03T08:04:34.595Z,11.50
2018-12-03T08:07:02.936Z,11.60
2018-12-03T08:09:31.333Z,11.60
2018-12-03T08:11:59.693Z,11.70
2018-12-03T08:14:28.134Z,11.70
2018-12-03T08:16:56.533Z,11.80
2018-12-03T08:19:24.957Z,11.80
2018-12-03T08:21:53.370Z,11.80
2018-12-03T08:24:21.767Z,11.80
2018-12-03T08:26:50.166Z,11.80
2018-12-03T08:29:18.545Z,11.80
2018-12-03T08:31:46.959Z,11.80
2018-12-03T08:34:15.423Z,11.80
2018-12-03T08:36:43.804Z,11.80
2018-12-03T08:39:12.224Z,11.80
2018-12-03T08:41:40.642Z,11.90
2018-12-03T08:44:09.029Z,11.90
2018-12-03T08:46:37.571Z,11.80
2018-12-03T08:49:06.863Z,11.90
2018-12-03T08:51:35.262Z,12.00
2018-12-03T08:54:03.696Z,12.00
2018-12-03T08:56:32.138Z,11.90
2018-12-03T08:59:00.742Z,11.90
2018-12-03T09:01:29.173Z,11.90
2018-12-03T09:03:59.716Z,11.90
2018-12-03T09:06:28.144Z,11.90
2018-12-03T09:08:56.509Z,11.80
2018-12-03T09:11:25.153Z,11.90
2018-12-03T09:13:53.860Z,12.10
2018-12-03T09:16:22.318Z,12.30
2018-12-03T09:18:50.788Z,12.60
2018-12-03T09:21:19.270Z,12.90
2018-12-03T09:23:48.218Z,12.90
2018-12-03T09:26:16.706Z,12.90
2018-12-03T09:28:45.082Z,12.90
2018-12-03T09:31:16.897Z,12.70
2018-12-03T09:33:50.832Z,12.60
2018-12-03T09:36:19.286Z,12.50
2018-12-03T09:38:53.194Z,12.40
2018-12-03T09:41:21.644Z,12.30
2018-12-03T09:43:50.101Z,12.20
2018-12-03T09:46:20.201Z,12.10
2018-12-03T09:48:48.771Z,12.10
2018-12-03T09:51:17.146Z,12.10
2018-12-03T09:53:45.554Z,12.10
2018-12-03T09:56:13.924Z,12.20
2018-12-03T09:58:42.440Z,12.20
2018-12-03T10:01:11.109Z,12.20
2018-12-03T10:03:41.049Z,12.20
2018-12-03T10:06:10.506Z,12.20
2018-12-03T10:08:39.038Z,12.20
2018-12-03T10:11:07.429Z,12.10
2018-12-03T10:13:35.846Z,11.90
2018-12-03T10:16:04.213Z,11.80
2018-12-03T10:18:32.625Z,11.70
2018-12-03T10:21:01.385Z,11.60
2018-12-03T10:23:29.770Z,11.50
2018-12-03T10:25:58.984Z,11.50
2018-12-03T10:28:27.710Z,11.50
2018-12-03T10:30:56.724Z,11.60
2018-12-03T10:33:27.163Z,11.80
2018-12-03T10:35:55.828Z,12.00
2018-12-03T10:38:25.238Z,12.30
2018-12-03T10:40:54.926Z,12.60
2018-12-03T10:43:23.326Z,12.60
2018-12-03T10:45:51.749Z,12.50
2018-12-03T10:48:20.150Z,12.40
2018-12-03T10:50:48.577Z,12.40
2018-12-03T10:53:20.392Z,12.50
2018-12-03T10:55:48.867Z,12.50
2018-12-03T10:58:17.299Z,12.60
2018-12-03T11:00:50.981Z,12.70
2018-12-03T11:03:24.710Z,12.70
2018-12-03T11:05:58.421Z,12.80
2018-12-03T11:08:26.897Z,12.90
2018-12-03T11:10:55.537Z,12.90
2018-12-03T11:13:23.959Z,12.90
2018-12-03T11:15:52.437Z,12.80
2018-12-03T11:18:21.339Z,12.80
2018-12-03T11:20:49.842Z,12.70
2018-12-03T11:23:19.449Z,12.70
2018-12-03T11:25:47.819Z,12.60
2018-12-03T11:28:16.790Z,12.70
2018-12-03T11:30:47.775Z,12.80
2018-12-03T11:33:20.514Z,13.10
2018-12-03T11:35:48.990Z,13.30
2018-12-03T11:38:19.413Z,13.20
2018-12-03T11:40:49.459Z,13.10
2018-12-03T11:43:17.870Z,13.00
2018-12-03T11:45:46.282Z,13.00
2018-12-03T11:48:14.799Z,12.90
2018-12-03T11:50:43.261Z,13.00
2018-12-03T11:53:11.673Z,12.90
2018-12-03T11:55:40.117Z,13.00
2018-12-03T11:58:08.518Z,13.10
2018-12-03T12:00:36.917Z,13.20
2018-12-03T12:03:05.585Z,13.30
2018-12-03T12:05:34.027Z,13.30
2018-12-03T12:08:02.425Z,13.30
2018-12-03T12:10:30.832Z,13.20
2018-12-03T12:12:59.235Z,13.20
2018-12-03T12:15:27.657Z,13.10
2018-12-03T12:17:56.058Z,13.10
2018-12-03T12:20:24.649Z,13.00
2018-12-03T12:22:53.022Z,12.90
2018-12-03T12:25:21.472Z,12.80
2018-12-03T12:27:51.134Z,12.80
2018-12-03T12:30:19.565Z,12.80
2018-12-03T12:32:47.981Z,12.80
2018-12-03T12:35:16.411Z,12.80
2018-12-03T12:37:44.865Z,12.80
2018-12-03T12:40:13.555Z,12.90
2018-12-03T12:42:42.420Z,12.90
2018-12-03T12:45:21.313Z,13.00
2018-12-03T12:47:49.697Z,13.10
2018-12-03T12:50:18.164Z,13.10
2018-12-03T12:52:47.880Z,13.20
2018-12-03T12:55:15.319Z,13.20
2018-12-03T12:57:43.688Z,13.20
2018-12-03T13:00:12.973Z,13.20
2018-12-03T13:02:41.479Z,13.10
2018-12-03T13:05:09.904Z,13.10
2018-12-03T13:07:38.356Z,13.10
2018-12-03T13:10:09.110Z,13.10
2018-12-03T13:12:37.945Z,13.20
2018-12-03T13:15:08.183Z,13.30
2018-12-03T13:17:36.641Z,13.20
2018-12-03T13:20:06.622Z,13.10
2018-12-03T13:22:35.593Z,13.00
2018-12-03T13:25:05.351Z,12.90
2018-12-03T13:27:33.918Z,12.80
2018-12-03T13:30:02.345Z,12.90
2018-12-03T13:32:30.787Z,12.70
2018-12-03T13:34:59.243Z,12.60
2018-12-03T13:37:27.727Z,12.50
2018-12-03T13:39:56.128Z,12.40
2018-12-03T13:42:24.802Z,12.40
2018-12-03T13:44:53.271Z,12.30
2018-12-03T13:47:21.698Z,12.40
2018-12-03T13:49:50.090Z,12.30
2018-12-03T13:52:18.490Z,12.30
2018-12-03T13:54:47.053Z,12.40
2018-12-03T13:57:15.430Z,12.40
2018-12-03T13:59:43.905Z,12.50
2018-12-03T14:02:12.257Z,12.60
2018-12-03T14:04:41.590Z,12.60
2018-12-03T14:07:13.181Z,12.50
2018-12-03T14:10:04.771Z,12.50
2018-12-03T14:12:34.737Z,12.40
2018-12-03T14:15:08.761Z,12.40
2018-12-03T14:17:39.794Z,12.30
2018-12-03T14:20:08.764Z,12.20
2018-12-03T14:22:39.958Z,12.20
2018-12-03T14:25:08.465Z,12.10
2018-12-03T14:27:37.275Z,12.10
2018-12-03T14:30:06.483Z,12.00
2018-12-03T14:32:34.896Z,12.00
2018-12-03T14:35:03.517Z,11.90
2018-12-03T14:37:32.115Z,11.90
2018-12-03T14:40:00.534Z,11.80
2018-12-03T14:42:29.013Z,11.80
2018-12-03T14:44:57.433Z,11.80
2018-12-03T14:47:25.831Z,11.70
2018-12-03T14:49:54.201Z,11.60
2018-12-03T14:52:22.627Z,11.50
2018-12-03T14:54:51.062Z,11.30
2018-12-03T14:57:19.745Z,11.20
2018-12-03T14:59:48.190Z,11.10
2018-12-03T15:02:16.625Z,11.00
2018-12-03T15:04:45.048Z,10.90
2018-12-03T15:07:13.521Z,10.90
2018-12-03T15:09:41.980Z,10.80
2018-12-03T15:12:10.404Z,10.80
2018-12-03T15:14:39.022Z,10.70
2018-12-03T15:17:07.467Z,10.70
2018-12-03T15:19:36.697Z,10.70
2018-12-03T15:22:05.325Z,10.70
2018-12-03T15:25:12.727Z,10.70
2018-12-03T15:27:41.700Z,10.70
2018-12-03T15:30:09.416Z,10.70
2018-12-03T15:32:37.143Z,10.70
2018-12-03T15:35:04.977Z,10.70
2018-12-03T15:37:32.692Z,10.70
2018-12-03T15:40:00.880Z,10.70
2018-12-03T15:42:29.743Z,10.80
2018-12-03T15:44:57.489Z,10.80
2018-12-03T15:47:26.218Z,10.90
2018-12-03T15:49:54.073Z,10.90
2018-12-03T15:52:22.180Z,10.90
2018-12-03T15:54:49.926Z,11.00
2018-12-03T15:57:17.753Z,11.00
2018-12-03T15:59:47.193Z,11.00
2018-12-03T16:02:15.224Z,10.90
2018-12-03T16:04:43.149Z,10.90
2018-12-03T16:07:11.061Z,10.70
2018-12-03T16:09:38.883Z,10.60
2018-12-03T16:12:06.798Z,10.50
2018-12-03T16:14:34.605Z,10.40
2018-12-03T16:17:02.545Z,10.30
2018-12-03T16:19:30.388Z,10.30
2018-12-03T16:21:58.459Z,10.30
2018-12-03T16:24:26.166Z,10.20
2018-12-03T16:26:54.034Z,10.20
2018-12-03T16:29:21.745Z,10.20
2018-12-03T16:31:49.519Z,10.20
2018-12-03T16:34:17.226Z,10.30
2018-12-03T16:36:45.094Z,10.30
2018-12-03T16:39:12.785Z,10.40
2018-12-03T16:41:40.924Z,10.40
2018-12-03T16:44:08.950Z,10.50
2018-12-03T16:46:37.099Z,10.60
2018-12-03T16:49:06.686Z,10.70
2018-12-03T16:51:34.914Z,10.90
2018-12-03T16:54:02.866Z,10.90
2018-12-03T16:56:30.942Z,10.90
2018-12-03T16:58:59.158Z,11.00
2018-12-03T17:01:26.943Z,11.00
2018-12-03T17:03:54.623Z,11.00
2018-12-03T17:06:22.373Z,11.10
2018-12-03T17:08:50.210Z,11.00
2018-12-03T17:11:18.776Z,11.10
2018-12-03T17:13:46.614Z,11.10
2018-12-03T17:16:14.495Z,11.20
2018-12-03T17:18:42.335Z,11.20
2018-12-03T17:21:10.186Z,11.30
2018-12-03T17:23:38.014Z,11.30
2018-12-03T17:26:05.843Z,11.30
2018-12-03T17:28:33.703Z,11.30
2018-12-03T17:31:01.616Z,11.30
2018-12-03T17:33:29.393Z,11.30
2018-12-03T17:35:57.413Z,11.30
2018-12-03T17:38:26.565Z,11.20
2018-12-03T17:40:54.310Z,11.20
2018-12-03T17:43:22.193Z,11.20
2018-12-03T17:45:50.050Z,11.20
2018-12-03T17:48:17.814Z,11.10
2018-12-03T17:50:45.767Z,11.20
2018-12-03T17:53:13.457Z,11.30
2018-12-03T17:55:41.381Z,11.30
2018-12-03T17:58:09.669Z,11.30
2018-12-03T18:00:37.585Z,11.30
2018-12-03T18:03:05.402Z,11.30
2018-12-03T18:05:33.138Z,11.30
2018-12-03T18:08:02.681Z,11.30
2018-12-03T18:10:32.354Z,11.30
2018-12-03T18:13:00.115Z,11.30
2018-12-03T18:15:28.130Z,11.30
2018-12-03T18:17:55.942Z,11.20
2018-12-03T18:20:25.588Z,11.20
2018-12-03T18:22:53.438Z,11.30
2018-12-03T18:25:23.055Z,11.20
2018-12-03T18:27:50.928Z,11.30
2018-12-03T18:30:18.677Z,11.30
2018-12-03T18:32:46.442Z,11.30
2018-12-03T18:35:14.361Z,11.30
2018-12-03T18:37:42.196Z,11.30
2018-12-03T18:40:10.087Z,11.30
2018-12-03T18:42:37.906Z,11.40
2018-12-03T18:45:05.960Z,11.40
2018-12-03T18:47:33.726Z,11.50
2018-12-03T18:50:01.784Z,11.50
2018-12-03T18:52:29.624Z,11.60
2018-12-03T18:54:57.412Z,11.60
2018-12-03T18:57:25.512Z,11.60
2018-12-03T18:59:53.768Z,11.70
2018-12-03T19:02:21.697Z,11.70
2018-12-03T19:04:49.520Z,11.70
2018-12-03T19:07:17.280Z,11.70
2018-12-03T19:09:45.110Z,11.70
2018-12-03T19:12:12.949Z,11.70
2018-12-03T19:14:40.809Z,11.60
2018-12-03T19:17:08.547Z,11.60
2018-12-03T19:19:36.349Z,11.60
2018-12-03T19:22:04.250Z,11.60
2018-12-03T19:24:32.110Z,11.50
2018-12-03T19:26:59.958Z,11.60
2018-12-03T19:29:27.690Z,11.60
2018-12-03T19:31:55.498Z,11.50
2018-12-03T19:34:23.247Z,11.50
2018-12-03T19:36:50.975Z,11.50
2018-12-03T19:39:18.845Z,11.50
2018-12-03T19:41:46.558Z,11.60
2018-12-03T19:44:14.323Z,11.60
2018-12-03T19:46:43.284Z,11.60
2018-12-03T19:49:11.010Z,11.60
2018-12-03T19:51:38.751Z,11.60
2018-12-03T19:54:06.603Z,11.60
2018-12-03T19:56:34.680Z,11.50
2018-12-03T19:59:02.505Z,11.50
2018-12-03T20:01:30.669Z,11.40
2018-12-03T20:03:58.465Z,11.40
2018-12-03T20:06:26.223Z,11.40
2018-12-03T20:08:54.230Z,11.40
2018-12-03T20:11:22.162Z,11.40
2018-12-03T20:13:50.084Z,11.40
2018-12-03T20:16:18.041Z,11.30
2018-12-03T20:18:45.894Z,11.30
2018-12-03T20:21:13.612Z,11.20
2018-12-03T20:23:41.443Z,11.20
2018-12-03T20:26:09.321Z,11.10
2018-12-03T20:28:37.250Z,11.10
2018-12-03T20:31:05.874Z,11.10
2018-12-03T20:33:34.256Z,11.10
2018-12-03T20:36:02.832Z,11.10
2018-12-03T20:38:30.951Z,11.10
2018-12-03T20:40:58.768Z,11.00
2018-12-03T20:43:26.681Z,11.00
2018-12-03T20:45:56.596Z,11.00
2018-12-03T20:48:25.242Z,10.90
2018-12-03T20:50:53.045Z,10.90
2018-12-03T20:53:20.773Z,10.90
2018-12-03T20:55:48.728Z,11.00
2018-12-03T20:58:16.605Z,10.90
2018-12-03T21:00:44.358Z,10.90
2018-12-03T21:03:12.237Z,10.90
2018-12-03T21:05:39.970Z,10.90
2018-12-03T21:08:08.091Z,10.90
2018-12-03T21:10:36.099Z,10.90
2018-12-03T21:13:04.321Z,10.90
2018-12-03T21:15:32.182Z,10.90
2018-12-03T21:17:59.898Z,10.90
2018-12-03T21:20:27.445Z,10.90
2018-12-03T21:22:54.970Z,10.90
2018-12-03T21:25:28.416Z,10.90
2018-12-03T21:27:58.363Z,10.90
2018-12-03T21:30:25.943Z,10.90
2018-12-03T21:32:53.445Z,10.80
2018-12-03T21:35:21.048Z,10.90
2018-12-03T21:37:48.606Z,10.80
2018-12-03T21:40:16.970Z,10.90
2018-12-03T21:42:44.794Z,10.90
2018-12-03T21:45:12.975Z,10.80
2018-12-03T21:47:40.667Z,10.80
2018-12-03T21:50:08.420Z,10.80
2018-12-03T21:52:36.241Z,10.80
2018-12-03T21:55:04.829Z,10.80
2018-12-03T21:57:33.373Z,10.80
2018-12-03T22:00:01.529Z,10.80
2018-12-03T22:02:29.731Z,10.80
2018-12-03T22:04:58.348Z,10.80
2018-12-03T22:07:26.382Z,10.80
2018-12-03T22:09:55.180Z,10.90
2018-12-03T22:12:23.201Z,10.80
2018-12-03T22:14:51.529Z,10.80
2018-12-03T22:17:19.279Z,10.80
2018-12-03T22:19:48.594Z,10.80
2018-12-03T22:22:16.482Z,10.80
2018-12-03T22:24:44.634Z,10.80
2018-12-03T22:27:12.362Z,10.70
2018-12-03T22:29:40.908Z,10.70
2018-12-03T22:32:09.045Z,10.70
2018-12-03T22:34:37.089Z,10.70
2018-12-03T22:37:04.885Z,10.70
2018-12-03T22:39:32.946Z,10.70
2018-12-03T22:42:02.540Z,10.80
2018-12-03T22:44:30.288Z,10.80
2018-12-03T22:46:58.298Z,10.80
2018-12-03T22:49:26.159Z,10.70
2018-12-03T22:51:55.749Z,10.80
2018-12-03T22:54:23.469Z,10.80
2018-12-03T22:56:51.178Z,10.70
2018-12-03T22:59:20.801Z,10.80
2018-12-03T23:01:48.532Z,10.80
2018-12-03T23:04:16.358Z,10.80
2018-12-03T23:06:44.074Z,10.80
2018-12-03T23:09:13.717Z,10.80
2018-12-03T23:11:41.714Z,10.70
2018-12-03T23:14:10.327Z,10.70
2018-12-03T23:16:38.073Z,10.70
2018-12-03T23:19:05.786Z,10.60
2018-12-03T23:21:33.513Z,10.60
2018-12-03T23:24:02.137Z,10.60
2018-12-03T23:26:31.164Z,10.60
2018-12-03T23:28:58.880Z,10.60
2018-12-03T23:31:26.599Z,10.60
2018-12-03T23:33:56.196Z,10.60
2018-12-03T23:36:23.923Z,10.50
2018-12-03T23:38:51.653Z,10.50
2018-12-03T23:41:19.486Z,10.50
2018-12-03T23:43:47.599Z,10.40
2018-12-03T23:46:15.926Z,10.40
2018-12-03T23:48:43.641Z,10.30
2018-12-03T23:51:12.472Z,10.30
2018-12-03T23:53:40.180Z,10.30
2018-12-03T23:56:09.086Z,10.10
2018-12-03T23:58:37.711Z,10.10
